Vendome Street — A8YI6 — position and weather

sailwx.info

Track history (hours):
 
Tides and Currents Weather Stations Pressure Air Temp Water Temp Dewpoint Dewpoint Depression Visibility Wind Speed Wind Dir Waves Ship Positions

Vendome Street

Last reported at 2018-May-08 20:34 UTC. Time now 2018-May-23 20:20 UTC.
Position N 35°57' W 005°35'.
Warning: this ship's position is 14 days out of date.

Length 177 m; draft 11.1 m.

Type: Ship. MMSI: 636015064.

Date/timePositionNaut miles runAvg speedWind from/ knotsBaromVisibWave heightAir tempDewpointWater temp
2018-May-08 20:34N 35°57' W 005°35'111.5
2018-May-08 20:31N 35°58' W 005°34'510.8
2018-May-08 20:00N 36°00' W 005°28'510.9
2018-May-08 19:31N 36°04' W 005°23'510.9
2018-May-08 19:01N 36°07' W 005°18'0 0.2
2018-May-08 17:39N 36°07' W 005°18'0 1.0
2018-May-08 17:30N 36°06' W 005°18'1 1.2
2018-May-08 17:01N 36°06' W 005°17'4 7.9
2018-May-08 16:27N 36°07' W 005°12'25512.5
2018-May-07 20:07N 36°47' E 000°01'413.2
2018-May-07 19:51N 36°48' E 000°05'  
2018-Apr-30 01:01N 36°02' W 004°58'0 6.8
2018-Apr-30 01:00N 36°01' W 004°58'713.4
2018-Apr-30 00:27N 36°00' W 005°07'612.3
2018-Apr-30 00:00N 35°60' W 005°14'510.5
2018-Apr-29 23:31N 36°02' W 005°19'3 6.9
2018-Apr-29 23:00N 36°05' W 005°22'0 0.6
2018-Apr-29 22:30N 36°04' W 005°22'3 5.5
2018-Apr-29 22:00N 36°07' W 005°22'0 0.4
2018-Apr-29 21:30N 36°07' W 005°21'0 0.2
2018-Apr-29 21:00N 36°07' W 005°21'0 0.0
2018-Apr-29 20:25N 36°07' W 005°21'0 0.0
2018-Apr-29 20:00N 36°07' W 005°21'0 0.0
2018-Apr-29 19:30N 36°07' W 005°21'0 0.0
2018-Apr-29 19:00N 36°07' W 005°21'0 0.0
2018-Apr-29 17:45N 36°07' W 005°21'0 0.0
2018-Apr-29 14:12N 36°07' W 005°21'0 0.0
2018-Apr-29 13:54N 36°07' W 005°21'0 0.0
2018-Apr-29 13:30N 36°07' W 005°21'0 0.0
2018-Apr-29 12:57N 36°07' W 005°21'0 0.1
2018-Apr-29 12:30N 36°07' W 005°21'0 0.0
2018-Apr-29 11:33N 36°07' W 005°21'0 0.1
2018-Apr-29 11:30N 36°07' W 005°21'0 0.2
2018-Apr-29 11:00N 36°07' W 005°22'2 4.7
2018-Apr-29 10:29N 36°05' W 005°21'4 7.6
2018-Apr-29 10:00N 36°04' W 005°16'4 5.6
2018-Apr-29 09:18N 35°60' W 005°15'3 8.5
2018-Apr-29 09:00N 35°60' W 005°18'4 8.3
2018-Apr-29 08:30N 35°59' W 005°23'4 8.8
2018-Apr-29 08:00N 35°57' W 005°28'7 9.5
2018-Apr-29 07:18N 35°55' W 005°36'3 9.3
2018-Apr-29 06:58N 35°54' W 005°40'4 9.1
2018-Apr-29 06:30N 35°54' W 005°45'4 8.6
2018-Apr-29 06:00N 35°53' W 005°50'  
Track history (hours):
 
Tides and Currents Weather Stations Pressure Air Temp Water Temp Dewpoint Dewpoint Depression Visibility Wind Speed Wind Dir Waves Ship Positions

Vendome Street

Last reported at 2018-May-08 20:34 UTC. Time now 2018-May-23 20:20 UTC.
Position N 35°57' W 005°35'.
Warning: this ship's position is 14 days out of date.

Length 177 m; draft 11.1 m.

Type: Ship. MMSI: 636015064.

Date/timePositionNaut miles runAvg speedWind from/ knotsBaromVisibWave heightAir tempDewpointWater temp
2018-May-08 20:34N 35°57' W 005°35'111.5
2018-May-08 20:31N 35°58' W 005°34'510.8
2018-May-08 20:00N 36°00' W 005°28'510.9
2018-May-08 19:31N 36°04' W 005°23'510.9
2018-May-08 19:01N 36°07' W 005°18'0 0.2
2018-May-08 17:39N 36°07' W 005°18'0 1.0
2018-May-08 17:30N 36°06' W 005°18'1 1.2
2018-May-08 17:01N 36°06' W 005°17'4 7.9
2018-May-08 16:27N 36°07' W 005°12'25512.5
2018-May-07 20:07N 36°47' E 000°01'413.2
2018-May-07 19:51N 36°48' E 000°05'  
2018-Apr-30 01:01N 36°02' W 004°58'0 6.8
2018-Apr-30 01:00N 36°01' W 004°58'713.4
2018-Apr-30 00:27N 36°00' W 005°07'612.3
2018-Apr-30 00:00N 35°60' W 005°14'510.5
2018-Apr-29 23:31N 36°02' W 005°19'3 6.9
2018-Apr-29 23:00N 36°05' W 005°22'0 0.6
2018-Apr-29 22:30N 36°04' W 005°22'3 5.5
2018-Apr-29 22:00N 36°07' W 005°22'0 0.4
2018-Apr-29 21:30N 36°07' W 005°21'0 0.2
2018-Apr-29 21:00N 36°07' W 005°21'0 0.0
2018-Apr-29 20:25N 36°07' W 005°21'0 0.0
2018-Apr-29 20:00N 36°07' W 005°21'0 0.0
2018-Apr-29 19:30N 36°07' W 005°21'0 0.0
2018-Apr-29 19:00N 36°07' W 005°21'0 0.0
2018-Apr-29 17:45N 36°07' W 005°21'0 0.0
2018-Apr-29 14:12N 36°07' W 005°21'0 0.0
2018-Apr-29 13:54N 36°07' W 005°21'0 0.0
2018-Apr-29 13:30N 36°07' W 005°21'0 0.0
2018-Apr-29 12:57N 36°07' W 005°21'0 0.1
2018-Apr-29 12:30N 36°07' W 005°21'0 0.0
2018-Apr-29 11:33N 36°07' W 005°21'0 0.1
2018-Apr-29 11:30N 36°07' W 005°21'0 0.2
2018-Apr-29 11:00N 36°07' W 005°22'2 4.7
2018-Apr-29 10:29N 36°05' W 005°21'4 7.6
2018-Apr-29 10:00N 36°04' W 005°16'4 5.6
2018-Apr-29 09:18N 35°60' W 005°15'3 8.5
2018-Apr-29 09:00N 35°60' W 005°18'4 8.3
2018-Apr-29 08:30N 35°59' W 005°23'4 8.8
2018-Apr-29 08:00N 35°57' W 005°28'7 9.5
2018-Apr-29 07:18N 35°55' W 005°36'3 9.3
2018-Apr-29 06:58N 35°54' W 005°40'4 9.1
2018-Apr-29 06:30N 35°54' W 005°45'4 8.6
2018-Apr-29 06:00N 35°53' W 005°50'  

Dump ship's entire track history